createdAt,value
2023-01-26T00:01:59.991Z,101201.19
2023-01-26T00:04:27.527Z,101200.31
2023-01-26T00:06:54.920Z,101206.41
2023-01-26T00:09:22.451Z,101200.25
2023-01-26T00:11:49.863Z,101203.78
2023-01-26T00:14:17.237Z,101201.19
2023-01-26T00:16:45.928Z,101196.78
2023-01-26T00:19:13.297Z,101199.41
2023-01-26T00:21:40.682Z,101185.34
2023-01-26T00:24:08.637Z,101188.84
2023-01-26T00:26:36.009Z,101184.47
2023-01-26T00:29:03.375Z,101191.53
2023-01-26T00:31:30.802Z,101188.94
2023-01-26T00:33:59.525Z,101178.53
2023-01-26T00:36:27.485Z,101177.50
2023-01-26T00:38:54.882Z,101178.38
2023-01-26T00:41:39.885Z,101181.88
2023-01-26T00:44:07.263Z,101178.38
2023-01-26T00:46:34.682Z,101174.00
2023-01-26T00:49:03.377Z,101174.00
2023-01-26T00:51:30.762Z,101173.16
2023-01-26T00:53:58.173Z,101125.53
2023-01-26T00:56:27.827Z,101170.50
2023-01-26T00:58:55.241Z,101166.13
2023-01-26T01:01:22.635Z,101163.53
2023-01-26T01:03:52.051Z,101159.13
2023-01-26T01:06:20.772Z,101155.59
2023-01-26T01:08:48.209Z,101132.16
2023-01-26T01:11:15.587Z,101086.25
2023-01-26T01:13:43.032Z,101148.56
2023-01-26T01:16:11.717Z,101164.41
2023-01-26T01:18:39.198Z,101146.78
2023-01-26T01:21:07.777Z,101144.19
2023-01-26T01:23:36.499Z,101054.16
2023-01-26T01:26:04.147Z,101083.63
2023-01-26T01:28:31.527Z,101131.94
2023-01-26T01:30:58.993Z,101128.53
2023-01-26T01:33:26.445Z,101114.75
2023-01-26T01:35:57.914Z,101133.69
2023-01-26T01:38:25.306Z,101128.44
2023-01-26T01:40:54.131Z,101131.09
2023-01-26T01:43:21.682Z,101126.66
2023-01-26T01:45:49.258Z,101122.25
2023-01-26T01:48:20.503Z,101112.75
2023-01-26T01:50:48.247Z,101120.53
2023-01-26T01:53:19.644Z,101124.94
2023-01-26T01:55:47.173Z,101121.47
2023-01-26T01:58:15.889Z,101122.34
2023-01-26T02:00:43.737Z,101111.78
2023-01-26T02:03:15.098Z,101118.81
2023-01-26T02:05:46.909Z,101079.88
2023-01-26T02:08:14.489Z,101072.88
2023-01-26T02:10:42.034Z,101112.66
2023-01-26T02:13:09.430Z,101102.97
2023-01-26T02:15:38.200Z,101099.50
2023-01-26T02:18:05.638Z,101099.50
2023-01-26T02:20:35.688Z,101084.00
2023-01-26T02:23:06.255Z,101096.03
2023-01-26T02:25:35.428Z,101084.59
2023-01-26T02:28:04.158Z,101081.16
2023-01-26T02:30:31.562Z,101082.00
2023-01-26T02:32:59.110Z,101034.22
2023-01-26T02:35:26.609Z,101072.31
2023-01-26T02:37:54.011Z,101072.31
2023-01-26T02:40:25.849Z,101085.53
2023-01-26T02:42:54.133Z,101089.03
2023-01-26T02:45:22.849Z,101084.59
2023-01-26T02:47:50.332Z,101075.88
2023-01-26T02:50:17.097Z,101075.00
2023-01-26T02:52:44.950Z,101062.88
2023-01-26T02:55:25.146Z,101068.06
2023-01-26T02:57:52.656Z,101071.63
2023-01-26T03:00:20.279Z,101064.59
2023-01-26T03:02:48.988Z,101069.00
2023-01-26T03:05:16.367Z,101064.53
2023-01-26T03:07:43.797Z,101029.09
2023-01-26T03:10:12.238Z,101042.09
2023-01-26T03:12:39.771Z,101023.13
2023-01-26T03:15:26.073Z,101065.41
2023-01-26T03:18:32.887Z,101064.53
2023-01-26T03:21:29.390Z,101061.94
2023-01-26T03:24:14.528Z,101056.69
2023-01-26T03:26:59.388Z,101061.97
2023-01-26T03:29:27.296Z,101024.06
2023-01-26T03:31:54.825Z,101071.66
2023-01-26T03:34:23.568Z,101077.78
2023-01-26T03:36:50.949Z,101067.25
2023-01-26T03:39:32.354Z,101067.22
2023-01-26T03:42:17.445Z,101059.31
2023-01-26T03:45:02.744Z,101064.59
2023-01-26T03:47:48.010Z,101054.03
2023-01-26T03:50:34.922Z,101055.81
2023-01-26T03:53:20.212Z,101006.50
2023-01-26T03:56:05.532Z,101047.94
2023-01-26T03:58:32.932Z,101048.84
2023-01-26T04:01:00.354Z,101044.47
2023-01-26T04:03:45.186Z,100983.06
2023-01-26T04:06:31.612Z,101048.81
2023-01-26T04:08:58.990Z,101048.84
2023-01-26T04:11:26.449Z,101048.84
2023-01-26T04:14:11.209Z,101040.03
2023-01-26T04:16:55.865Z,101045.31
2023-01-26T04:19:40.703Z,101049.72
2023-01-26T04:22:09.382Z,101039.22
2023-01-26T04:24:36.767Z,101047.13
2023-01-26T04:27:04.304Z,101046.22
2023-01-26T04:29:31.679Z,101049.72
2023-01-26T04:31:59.046Z,101038.31
2023-01-26T04:34:26.432Z,101033.03
2023-01-26T04:36:54.179Z,101034.75
2023-01-26T04:39:22.899Z,101028.63
2023-01-26T04:41:50.278Z,101028.63
2023-01-26T04:44:17.715Z,101023.41
2023-01-26T04:46:45.972Z,100926.47
2023-01-26T04:49:13.342Z,101012.84
2023-01-26T04:51:40.716Z,101013.72
2023-01-26T04:54:08.118Z,101009.38
2023-01-26T04:56:36.958Z,100929.75
2023-01-26T04:59:05.458Z,101001.44
2023-01-26T05:01:32.871Z,100917.75
2023-01-26T05:04:00.345Z,100987.72
2023-01-26T05:06:27.727Z,101004.03
2023-01-26T05:08:55.119Z,101011.03
2023-01-26T05:11:22.475Z,100987.53
2023-01-26T05:13:51.156Z,101003.94
2023-01-26T05:16:18.571Z,101006.59
2023-01-26T05:18:45.949Z,101018.88
2023-01-26T05:21:13.301Z,101018.84
2023-01-26T05:23:41.089Z,101021.44
2023-01-26T05:26:08.596Z,101026.69
2023-01-26T05:28:36.084Z,100952.22
2023-01-26T05:31:04.921Z,101018.03
2023-01-26T05:33:32.325Z,101033.59
2023-01-26T05:35:59.718Z,101033.56
2023-01-26T05:38:27.143Z,101033.56
2023-01-26T05:40:54.545Z,101031.72
2023-01-26T05:43:21.928Z,101032.59
2023-01-26T05:45:49.323Z,101032.59
2023-01-26T05:48:18.026Z,101029.03
2023-01-26T05:50:45.488Z,101036.06
2023-01-26T05:53:12.868Z,101033.41
2023-01-26T05:55:40.259Z,101042.13
2023-01-26T05:58:07.652Z,101033.47
2023-01-26T06:00:35.175Z,101035.13
2023-01-26T06:03:02.571Z,101042.00
2023-01-26T06:05:31.269Z,101041.00
2023-01-26T06:07:58.641Z,101028.00
2023-01-26T06:10:26.636Z,101029.63
2023-01-26T06:12:54.000Z,101032.13
2023-01-26T06:15:21.365Z,101035.59
2023-01-26T06:17:48.741Z,101030.31
2023-01-26T06:20:16.385Z,101025.97
2023-01-26T06:22:45.092Z,101034.63
2023-01-26T06:25:12.500Z,101036.31
2023-01-26T06:27:42.077Z,101039.84
2023-01-26T06:30:11.246Z,101037.19
2023-01-26T06:32:38.780Z,101038.91
2023-01-26T06:35:08.311Z,101040.63
2023-01-26T06:37:36.148Z,101029.97
2023-01-26T06:40:05.762Z,101028.25
2023-01-26T06:42:33.165Z,101036.91
2023-01-26T06:45:00.539Z,101042.09
2023-01-26T06:47:27.897Z,101026.06
2023-01-26T06:49:55.281Z,101022.38
2023-01-26T06:52:29.050Z,100944.38
2023-01-26T06:54:56.682Z,101020.88
2023-01-26T06:57:25.394Z,101024.97
2023-01-26T06:59:52.763Z,101018.56
2023-01-26T07:02:20.844Z,101024.41
2023-01-26T07:04:48.960Z,100956.03
2023-01-26T07:07:16.356Z,101032.69
2023-01-26T07:09:43.724Z,101033.19
2023-01-26T07:12:11.096Z,101035.00
2023-01-26T07:14:39.801Z,101037.22
2023-01-26T07:17:07.169Z,101038.44
2023-01-26T07:19:34.548Z,101044.81
2023-01-26T07:22:02.003Z,101043.31
2023-01-26T07:24:29.423Z,101046.69
2023-01-26T07:26:56.792Z,101046.69
2023-01-26T07:29:24.170Z,101044.69
2023-01-26T07:31:52.880Z,101040.25
2023-01-26T07:34:20.387Z,101045.47
2023-01-26T07:36:47.754Z,101045.34
2023-01-26T07:39:15.129Z,101046.88
2023-01-26T07:41:42.493Z,101041.22
2023-01-26T07:44:10.937Z,101046.88
2023-01-26T07:46:38.341Z,101045.47
2023-01-26T07:49:07.084Z,101051.88
2023-01-26T07:51:34.508Z,101055.56
2023-01-26T07:54:02.511Z,101062.81
2023-01-26T07:56:29.912Z,101054.91
2023-01-26T07:58:57.288Z,101052.34
2023-01-26T08:01:24.707Z,101054.16
2023-01-26T08:06:15.077Z,101052.72
2023-01-26T08:08:43.162Z,101056.31
2023-01-26T08:11:10.834Z,101057.31
2023-01-26T08:13:38.449Z,101049.50
2023-01-26T08:16:09.417Z,101019.47
2023-01-26T08:18:36.813Z,101054.91
2023-01-26T08:21:04.455Z,101057.66
2023-01-26T08:23:33.136Z,101051.53
2023-01-26T08:26:01.978Z,101052.41
2023-01-26T08:28:29.372Z,101048.13
2023-01-26T08:30:56.782Z,101055.19
2023-01-26T08:33:24.209Z,101055.28
2023-01-26T08:35:51.583Z,101054.44
2023-01-26T08:38:18.943Z,101058.09
2023-01-26T08:40:51.951Z,101057.19
2023-01-26T08:43:19.342Z,101058.97
2023-01-26T08:45:47.903Z,101065.13
2023-01-26T08:48:15.307Z,101065.97
2023-01-26T08:50:42.709Z,101062.44
2023-01-26T08:53:10.069Z,101061.50
2023-01-26T08:55:37.462Z,101058.00
2023-01-26T08:58:06.187Z,101001.06
2023-01-26T09:00:34.078Z,101062.44
2023-01-26T09:03:01.598Z,100965.59
2023-01-26T09:05:29.337Z,101055.28
2023-01-26T09:07:56.704Z,101065.91
2023-01-26T09:10:24.138Z,101066.78
2023-01-26T09:12:51.628Z,101070.31
2023-01-26T09:15:20.317Z,101065.91
2023-01-26T09:17:49.057Z,101067.66
2023-01-26T09:20:16.982Z,101073.75
2023-01-26T09:22:44.383Z,101073.75
2023-01-26T09:25:12.160Z,101072.03
2023-01-26T09:27:39.727Z,101073.75
2023-01-26T09:30:08.385Z,101058.91
2023-01-26T09:32:37.118Z,101057.09
2023-01-26T09:35:04.855Z,101062.72
2023-01-26T09:37:32.222Z,101055.63
2023-01-26T09:39:59.602Z,101057.38
2023-01-26T09:42:40.191Z,101059.94
2023-01-26T09:45:22.901Z,101068.72
2023-01-26T09:48:07.950Z,101063.44
2023-01-26T09:50:36.727Z,101065.25
2023-01-26T09:53:06.072Z,101007.50
2023-01-26T09:55:33.446Z,101053.84
2023-01-26T09:58:01.987Z,101052.13
2023-01-26T10:00:31.199Z,101059.13
2023-01-26T10:03:06.223Z,101059.13
2023-01-26T10:05:37.945Z,101061.78
2023-01-26T10:08:08.839Z,101050.34
2023-01-26T10:10:38.860Z,101055.63
2023-01-26T10:13:06.224Z,101047.69
2023-01-26T10:15:35.260Z,101039.09
2023-01-26T10:18:06.931Z,100995.06
2023-01-26T10:20:35.167Z,101038.97
2023-01-26T10:23:04.365Z,100983.00
2023-01-26T10:25:36.016Z,101044.28
2023-01-26T10:28:03.652Z,101004.53
2023-01-26T10:30:31.051Z,101034.59
2023-01-26T10:32:58.548Z,101033.69
2023-01-26T10:35:27.311Z,101030.16
2023-01-26T10:37:56.078Z,101039.88
2023-01-26T10:40:23.454Z,101025.03
2023-01-26T10:42:57.978Z,101025.88
2023-01-26T10:45:26.999Z,101019.66
2023-01-26T10:48:14.190Z,101021.38
2023-01-26T10:50:42.897Z,101023.16
2023-01-26T10:53:15.845Z,101017.81
2023-01-26T10:55:43.206Z,101013.44
2023-01-26T10:58:41.632Z,101002.97
2023-01-26T11:01:12.129Z,101002.06
2023-01-26T11:03:39.914Z,100996.78
2023-01-26T11:06:12.122Z,100998.50
2023-01-26T11:08:39.904Z,100927.66
2023-01-26T11:11:10.220Z,100989.69
2023-01-26T11:13:37.640Z,100993.19
2023-01-26T11:16:10.007Z,100946.72
2023-01-26T11:18:42.621Z,100924.94
2023-01-26T11:21:16.827Z,100982.56
2023-01-26T11:23:49.583Z,100993.97
2023-01-26T11:26:40.783Z,100986.88
2023-01-26T11:29:31.739Z,100977.22
2023-01-26T11:32:00.588Z,100973.75
2023-01-26T11:34:31.714Z,100987.81
2023-01-26T11:37:09.764Z,100985.16
2023-01-26T11:39:40.599Z,100986.00
2023-01-26T11:42:17.998Z,100984.19
2023-01-26T11:44:55.247Z,100962.63
2023-01-26T11:47:32.362Z,100977.22
2023-01-26T11:50:16.030Z,100955.53
2023-01-26T11:52:49.887Z,100974.53
2023-01-26T11:55:20.188Z,100946.69
2023-01-26T11:57:54.762Z,100968.34
2023-01-26T12:00:29.904Z,100903.88
2023-01-26T12:03:00.370Z,100967.50
2023-01-26T12:05:29.304Z,100973.63
2023-01-26T12:08:00.130Z,100948.63
2023-01-26T12:10:31.071Z,100964.84
2023-01-26T12:13:01.806Z,100962.28
2023-01-26T12:15:32.125Z,100956.22
2023-01-26T12:18:00.247Z,100955.25
2023-01-26T12:20:30.024Z,100955.31
2023-01-26T12:23:03.222Z,100950.00
2023-01-26T12:25:33.289Z,100917.41
2023-01-26T12:28:06.323Z,100951.81
2023-01-26T12:30:36.991Z,100953.59
2023-01-26T12:33:04.471Z,100948.31
2023-01-26T12:35:47.691Z,100935.94
2023-01-26T12:38:18.587Z,100942.13
2023-01-26T12:40:52.973Z,100913.81
2023-01-26T12:43:24.620Z,100939.53
2023-01-26T12:45:53.046Z,100898.56
2023-01-26T12:48:22.539Z,100902.59
2023-01-26T12:50:51.126Z,100940.41
2023-01-26T12:53:21.594Z,100922.31
2023-01-26T12:55:50.517Z,100926.28
2023-01-26T12:58:19.182Z,100928.91
2023-01-26T13:00:52.554Z,100925.44
2023-01-26T13:03:22.840Z,100931.56
2023-01-26T13:05:57.513Z,100919.25
2023-01-26T13:08:47.931Z,100920.97
2023-01-26T13:11:15.675Z,100923.69
2023-01-26T13:13:53.884Z,100845.94
2023-01-26T13:16:34.538Z,100917.44
2023-01-26T13:19:02.170Z,100908.13
2023-01-26T13:21:29.716Z,100883.88
2023-01-26T13:23:58.425Z,100916.50
2023-01-26T13:26:41.387Z,100917.44
2023-01-26T13:29:28.462Z,100911.28
2023-01-26T13:32:02.638Z,100909.56
2023-01-26T13:34:31.989Z,100908.69
2023-01-26T13:37:02.168Z,100913.22
2023-01-26T13:39:30.975Z,100916.69
2023-01-26T13:41:58.402Z,100914.91
2023-01-26T13:44:30.365Z,100921.91
2023-01-26T13:46:59.387Z,100914.84
2023-01-26T13:49:27.634Z,100885.69
2023-01-26T13:51:55.042Z,100913.09
2023-01-26T13:54:22.430Z,100907.94
2023-01-26T13:57:04.789Z,100822.72
2023-01-26T13:59:33.029Z,100889.03
2023-01-26T14:02:00.578Z,100906.44
2023-01-26T14:04:28.950Z,100872.69
2023-01-26T14:06:57.700Z,100921.84
2023-01-26T14:09:26.678Z,100924.50
2023-01-26T14:11:57.578Z,100925.38
2023-01-26T14:14:27.023Z,100857.69
2023-01-26T14:16:54.461Z,100921.84
2023-01-26T14:19:22.789Z,100928.91
2023-01-26T14:21:51.578Z,100875.50
2023-01-26T14:24:20.868Z,100923.63
2023-01-26T14:26:48.518Z,100922.72
2023-01-26T14:29:20.581Z,100928.78
2023-01-26T14:31:49.745Z,100933.19
2023-01-26T14:34:20.114Z,100937.53
2023-01-26T14:36:47.494Z,100932.25
2023-01-26T14:39:18.679Z,100886.63
2023-01-26T14:41:46.161Z,100877.22
2023-01-26T14:44:13.630Z,100937.59
2023-01-26T14:46:48.549Z,100912.66
2023-01-26T14:49:18.977Z,100928.00
2023-01-26T14:51:46.428Z,100919.59
2023-01-26T14:54:17.018Z,100877.22
2023-01-26T14:56:44.410Z,100934.91
2023-01-26T14:59:19.591Z,100917.06
2023-01-26T15:01:47.195Z,100940.13
2023-01-26T15:04:22.583Z,100936.63
2023-01-26T15:06:50.062Z,100942.69
2023-01-26T15:09:22.371Z,100887.38
2023-01-26T15:12:10.916Z,100933.00
2023-01-26T15:14:39.000Z,100942.69
2023-01-26T15:17:06.470Z,100902.25
2023-01-26T15:19:42.345Z,100827.25
2023-01-26T15:22:20.196Z,100949.66
2023-01-26T15:24:47.630Z,100940.00
2023-01-26T15:27:15.015Z,100903.75
2023-01-26T15:29:42.405Z,100929.47
2023-01-26T15:32:28.221Z,100938.94
2023-01-26T15:35:05.981Z,100938.09
2023-01-26T15:37:34.775Z,100943.47
2023-01-26T15:40:02.204Z,100938.22
2023-01-26T15:42:30.933Z,100895.13
2023-01-26T15:44:58.447Z,100901.31
2023-01-26T15:47:25.836Z,100949.69
2023-01-26T15:49:53.220Z,100950.63
2023-01-26T15:52:25.351Z,100949.69
2023-01-26T15:54:53.814Z,100952.41
2023-01-26T15:57:21.224Z,100955.97
2023-01-26T15:59:48.623Z,100955.09
2023-01-26T16:02:17.130Z,100893.91
2023-01-26T16:04:44.630Z,100952.59
2023-01-26T16:07:12.721Z,100954.41
2023-01-26T16:09:41.494Z,100889.00
2023-01-26T16:12:13.049Z,100952.72
2023-01-26T16:14:40.635Z,100953.66
2023-01-26T16:17:13.638Z,100956.34
2023-01-26T16:19:41.047Z,100957.28
2023-01-26T16:22:09.900Z,100955.53
2023-01-26T16:24:37.275Z,100953.00
2023-01-26T16:27:06.054Z,100800.13
2023-01-26T16:29:33.443Z,100942.72
2023-01-26T16:32:01.245Z,100943.47
2023-01-26T16:34:28.711Z,100939.16
2023-01-26T16:36:56.559Z,100937.56
2023-01-26T16:39:23.917Z,100934.09
2023-01-26T16:41:51.304Z,100931.44
2023-01-26T16:44:21.832Z,100935.88
2023-01-26T16:46:49.213Z,100932.38
2023-01-26T16:49:16.645Z,100936.75
2023-01-26T16:51:44.080Z,100934.16
2023-01-26T16:54:11.533Z,100935.09
2023-01-26T16:56:38.908Z,100933.34
2023-01-26T16:59:06.282Z,100934.25
2023-01-26T17:01:36.387Z,100851.41
2023-01-26T17:04:03.818Z,100934.44
2023-01-26T17:06:31.252Z,100931.03
2023-01-26T17:08:58.725Z,100856.03
2023-01-26T17:11:28.094Z,100938.09
2023-01-26T17:13:56.788Z,100938.94
2023-01-26T17:16:26.014Z,100938.09
2023-01-26T17:18:54.788Z,100938.09
2023-01-26T17:21:22.253Z,100940.75
2023-01-26T17:23:50.285Z,100899.44
2023-01-26T17:26:17.894Z,100938.22
2023-01-26T17:28:45.435Z,100882.19
2023-01-26T17:31:13.986Z,100947.88
2023-01-26T17:33:41.379Z,100949.63
2023-01-26T17:36:10.629Z,100950.63
2023-01-26T17:38:38.082Z,100951.53
2023-01-26T17:41:05.968Z,100959.47
2023-01-26T17:43:33.433Z,100961.28
2023-01-26T17:46:05.957Z,100960.59
2023-01-26T17:48:34.578Z,100966.59
2023-01-26T17:51:02.057Z,100966.59
2023-01-26T17:53:30.766Z,100971.91
2023-01-26T17:55:58.141Z,100973.69
2023-01-26T17:58:25.539Z,100965.81
2023-01-26T18:00:52.936Z,100964.91
2023-01-26T18:03:25.997Z,100973.75
2023-01-26T18:05:53.475Z,100890.06
2023-01-26T18:08:20.887Z,100967.66
2023-01-26T18:10:49.570Z,100978.28
2023-01-26T18:13:17.055Z,100973.91
2023-01-26T18:15:44.547Z,100884.16
2023-01-26T18:18:12.574Z,100978.34
2023-01-26T18:20:39.978Z,100867.03
2023-01-26T18:23:07.360Z,100978.41
2023-01-26T18:25:35.173Z,100981.88
2023-01-26T18:28:03.868Z,100975.75
2023-01-26T18:30:31.333Z,100980.13
2023-01-26T18:32:58.735Z,100973.16
2023-01-26T18:35:26.113Z,100982.81
2023-01-26T18:37:53.494Z,100984.56
2023-01-26T18:40:21.082Z,100981.03
2023-01-26T18:42:49.191Z,100976.81
2023-01-26T18:45:18.099Z,100981.19
2023-01-26T18:47:45.511Z,100976.81
2023-01-26T18:50:12.866Z,100973.47
2023-01-26T18:52:40.597Z,100988.25
2023-01-26T18:55:09.421Z,100982.09
2023-01-26T18:57:37.192Z,100977.69
2023-01-26T19:00:05.807Z,100978.56
2023-01-26T19:02:38.732Z,100976.81
2023-01-26T19:05:07.095Z,100980.38
2023-01-26T19:07:34.519Z,100970.88
2023-01-26T19:10:01.954Z,100977.78
2023-01-26T19:12:29.355Z,100975.19
2023-01-26T19:14:56.781Z,100973.47
2023-01-26T19:17:24.170Z,100974.38
2023-01-26T19:19:52.846Z,100976.19
2023-01-26T19:22:20.384Z,100979.66
2023-01-26T19:24:47.777Z,100976.19
2023-01-26T19:27:15.163Z,100977.00
2023-01-26T19:29:42.538Z,100979.59
2023-01-26T19:32:09.970Z,100983.19
2023-01-26T19:34:37.381Z,100980.53
2023-01-26T19:37:06.064Z,100979.66
2023-01-26T19:39:33.463Z,100983.22
2023-01-26T19:42:00.838Z,100972.81
2023-01-26T19:44:28.229Z,100980.59
2023-01-26T19:46:55.754Z,100973.59
2023-01-26T19:49:23.138Z,100978.00
2023-01-26T19:51:50.512Z,100974.47
2023-01-26T19:54:19.191Z,100981.56
2023-01-26T19:56:46.564Z,100973.63
2023-01-26T19:59:13.943Z,100971.06
2023-01-26T20:01:41.387Z,100978.91
2023-01-26T20:04:10.434Z,100972.75
2023-01-26T20:06:37.899Z,100972.81
2023-01-26T20:09:05.729Z,100916.06
2023-01-26T20:11:34.433Z,100991.31
2023-01-26T20:14:02.845Z,100968.72
2023-01-26T20:16:30.677Z,100903.94
2023-01-26T20:18:58.631Z,100936.00
2023-01-26T20:23:55.720Z,100978.19
2023-01-26T20:26:23.612Z,100964.38
2023-01-26T20:28:52.703Z,100975.56
2023-01-26T20:31:21.455Z,100985.19
2023-01-26T20:33:49.254Z,100900.56
2023-01-26T20:36:17.635Z,100942.16
2023-01-26T20:38:46.430Z,100979.91
2023-01-26T20:41:15.229Z,100900.63
2023-01-26T20:43:57.360Z,100990.53
2023-01-26T20:46:29.270Z,100994.06
2023-01-26T20:48:56.723Z,100994.06
2023-01-26T20:51:25.071Z,100996.75
2023-01-26T20:53:52.452Z,100995.91
2023-01-26T20:56:20.917Z,100891.41
2023-01-26T20:58:48.435Z,100997.63
2023-01-26T21:01:17.007Z,100993.19
2023-01-26T21:03:45.831Z,100994.06
2023-01-26T21:06:15.231Z,100956.97
2023-01-26T21:08:42.667Z,100967.28
2023-01-26T21:11:12.438Z,100980.91
2023-01-26T21:13:41.063Z,100986.19
2023-01-26T21:16:08.811Z,100957.78
2023-01-26T21:18:36.262Z,100990.59
2023-01-26T21:21:06.860Z,100886.97
2023-01-26T21:23:34.734Z,100886.16
2023-01-26T21:26:02.757Z,100983.59
2023-01-26T21:28:30.243Z,100994.16
2023-01-26T21:31:01.622Z,100986.22
2023-01-26T21:33:29.240Z,100987.16
2023-01-26T21:35:57.221Z,100986.28
2023-01-26T21:38:25.940Z,100988.88
2023-01-26T21:40:58.870Z,100977.44
2023-01-26T21:43:26.332Z,100984.47
2023-01-26T21:45:56.104Z,100975.66
2023-01-26T21:48:31.768Z,100898.06
2023-01-26T21:51:16.658Z,100974.84
2023-01-26T21:53:45.344Z,100976.59
2023-01-26T21:56:14.527Z,100982.75
2023-01-26T21:59:02.577Z,100981.97
2023-01-26T22:01:30.453Z,100940.44
2023-01-26T22:03:58.082Z,100984.56
2023-01-26T22:06:25.643Z,100981.00
2023-01-26T22:08:54.415Z,100985.41
2023-01-26T22:11:21.926Z,100982.75
2023-01-26T22:13:49.322Z,100981.00
2023-01-26T22:16:16.736Z,100984.50
2023-01-26T22:18:45.554Z,100977.47
2023-01-26T22:21:13.056Z,100950.88
2023-01-26T22:23:40.880Z,100953.53
2023-01-26T22:26:10.278Z,100983.75
2023-01-26T22:28:37.706Z,100985.50
2023-01-26T22:31:06.564Z,100945.91
2023-01-26T22:33:34.289Z,100986.44
2023-01-26T22:36:02.469Z,100981.97
2023-01-26T22:38:29.967Z,100986.34
2023-01-26T22:40:57.358Z,100986.34
2023-01-26T22:43:26.738Z,100989.84
2023-01-26T22:45:54.320Z,100989.91
2023-01-26T22:48:21.741Z,100997.81
2023-01-26T22:50:49.150Z,100993.44
2023-01-26T22:53:16.526Z,100991.66
2023-01-26T22:55:44.055Z,100960.72
2023-01-26T22:58:11.630Z,100980.53
2023-01-26T23:00:40.389Z,101003.16
2023-01-26T23:03:07.860Z,100998.72
2023-01-26T23:05:35.278Z,101004.91
2023-01-26T23:08:02.769Z,101002.28
2023-01-26T23:10:30.211Z,101011.03
2023-01-26T23:12:57.686Z,100994.47
2023-01-26T23:15:25.217Z,101014.56
2023-01-26T23:17:53.939Z,101014.56
2023-01-26T23:20:21.809Z,101012.84
2023-01-26T23:22:49.183Z,101004.91
2023-01-26T23:25:33.890Z,101003.19
2023-01-26T23:28:04.359Z,101009.31
2023-01-26T23:30:31.745Z,101004.97
2023-01-26T23:33:00.417Z,101005.84
2023-01-26T23:35:27.806Z,101006.75
2023-01-26T23:37:55.173Z,101001.44
2023-01-26T23:40:22.549Z,101009.31
2023-01-26T23:43:03.669Z,101008.50
2023-01-26T23:45:37.308Z,101005.91
2023-01-26T23:48:06.474Z,101000.56
2023-01-26T23:50:34.089Z,100996.13
2023-01-26T23:53:01.504Z,100999.63
2023-01-26T23:55:28.935Z,101001.44
2023-01-26T23:57:56.306Z,100994.34
